Time;durP1;ratioP1;P1;durP2;ratioP2;P2;SDS_P1;SDS_P2;PMS_P1;PMS_P2;Temp;Humidity;BMP_temperature;BMP_pressure;BME280_temperature;BME280_humidity;BME280_pressure;Samples;Min_cycle;Max_cycle;Signal;HPM_P1;HPM_P2
2021/08/13 00:00:21;;;;;;;11.00;5.00;;;;;;;14.64;79.25;100571.21;1742424;82;21583;-75
2021/08/13 00:02:48;;;;;;;4.75;3.37;;;;;;;14.62;78.76;100577.05;1742836;82;21107;-74
2021/08/13 00:05:15;;;;;;;5.85;3.83;;;;;;;14.57;78.95;100572.43;1742658;82;21602;-74
2021/08/13 00:07:43;;;;;;;6.30;4.15;;;;;;;14.54;79.26;100573.44;1742867;82;21059;-76
2021/08/13 00:10:11;;;;;;;7.20;3.75;;;;;;;14.50;77.68;100574.94;1742383;82;21584;-75
2021/08/13 00:12:40;;;;;;;9.70;5.12;;;;;;;14.47;79.28;100574.62;1742518;82;21095;-74
2021/08/13 00:15:09;;;;;;;6.08;3.27;;;;;;;14.45;79.29;100578.66;1741736;82;21071;-75
2021/08/13 00:17:38;;;;;;;10.38;4.30;;;;;;;14.38;78.66;100569.27;1742343;82;21060;-75
2021/08/13 00:20:08;;;;;;;8.40;4.08;;;;;;;14.38;79.53;100579.87;1741423;82;21056;-75
2021/08/13 00:22:37;;;;;;;3.47;2.23;;;;;;;14.32;78.67;100580.14;1740483;82;21059;-73
2021/08/13 00:25:08;;;;;;;7.45;5.10;;;;;;;14.28;79.91;100576.75;1710699;82;21085;-77
2021/08/13 00:27:34;;;;;;;6.83;4.07;;;;;;;14.24;79.77;100574.31;1710651;83;21066;-75
2021/08/13 00:30:05;;;;;;;8.63;4.28;;;;;;;14.18;79.19;100569.31;1710135;83;21280;-75
2021/08/13 00:32:32;;;;;;;11.50;4.67;;;;;;;14.14;80.58;100576.99;1710106;83;21624;-75
2021/08/13 00:35:00;;;;;;;8.33;4.37;;;;;;;14.08;81.58;100575.94;1710151;83;21126;-75
2021/08/13 00:37:31;;;;;;;10.05;4.92;;;;;;;14.05;81.97;100581.76;1710212;83;21057;-76
2021/08/13 00:39:58;;;;;;;6.67;4.83;;;;;;;14.03;82.28;100579.67;1687550;83;21076;-72
2021/08/13 00:42:26;;;;;;;7.90;4.78;;;;;;;14.02;82.51;100583.23;1707113;83;21107;-77
2021/08/13 00:44:53;;;;;;;10.98;4.37;;;;;;;14.01;82.93;100580.20;1696721;83;21097;-81
2021/08/13 00:47:23;;;;;;;8.13;4.55;;;;;;;13.98;83.48;100576.34;1694698;83;21140;-77
2021/08/13 00:50:09;;;;;;;8.80;5.00;;;;;;;13.96;84.00;100580.84;1691175;83;21550;-78
2021/08/13 00:52:40;;;;;;;8.88;4.78;;;;;;;13.93;84.37;100577.02;1721337;83;21077;-77
2021/08/13 00:55:10;;;;;;;5.83;3.50;;;;;;;13.92;84.18;100583.69;1715062;83;21096;-78
2021/08/13 00:57:42;;;;;;;12.80;4.62;;;;;;;13.91;83.92;100587.28;1690321;83;21052;-78
2021/08/13 01:00:12;;;;;;;12.20;5.28;;;;;;;13.91;84.20;100591.25;1706935;83;21494;-78
2021/08/13 01:02:41;;;;;;;10.63;4.20;;;;;;;13.89;83.44;100589.98;1704058;83;21055;-78
2021/08/13 01:05:10;;;;;;;8.83;4.95;;;;;;;13.91;83.93;100600.05;1692531;82;21039;-78
2021/08/13 01:07:37;;;;;;;6.53;3.80;;;;;;;13.92;84.18;100600.46;1727625;82;21061;-76
2021/08/13 01:10:07;;;;;;;9.30;4.72;;;;;;;13.92;83.45;100600.46;1710231;83;21096;-80
2021/08/13 01:13:12;;;;;;;8.05;4.97;;;;;;;13.92;83.96;100591.63;1709095;83;22158;-78
2021/08/13 01:15:50;;;;;;;8.48;4.35;;;;;;;13.93;83.93;100595.55;1716326;82;21088;-77
2021/08/13 01:18:35;;;;;;;7.55;4.62;;;;;;;13.92;82.48;100599.58;1699234;83;21060;-78
2021/08/13 01:21:24;;;;;;;7.83;4.80;;;;;;;13.91;83.37;100598.72;1719659;83;21331;-77
2021/08/13 01:23:57;;;;;;;8.83;5.00;;;;;;;13.85;83.66;100591.06;1720004;83;21092;-81
2021/08/13 01:26:36;;;;;;;7.87;4.72;;;;;;;13.86;84.14;100595.42;1720293;83;21552;-79
2021/08/13 01:29:25;;;;;;;6.55;4.47;;;;;;;13.87;84.54;100598.92;1720364;83;21017;-78
2021/08/13 01:32:22;;;;;;;10.40;5.55;;;;;;;13.85;84.52;100599.02;1719797;83;21064;-78
2021/08/13 01:34:54;;;;;;;8.95;4.67;;;;;;;13.85;83.91;100602.98;1720217;83;21104;-78
2021/08/13 01:37:23;;;;;;;7.53;5.00;;;;;;;13.83;84.53;100607.48;1745612;81;21034;-79
2021/08/13 01:39:53;;;;;;;8.75;4.85;;;;;;;13.82;84.92;100600.44;1746188;81;21164;-79
2021/08/13 01:42:21;;;;;;;7.78;3.40;;;;;;;13.82;83.93;100599.12;1749396;81;21068;-80
2021/08/13 01:44:48;;;;;;;12.95;4.80;;;;;;;13.83;84.28;100606.16;1749522;81;21651;-80
2021/08/13 01:47:16;;;;;;;10.40;4.70;;;;;;;13.83;84.58;100603.50;1749905;81;21066;-79
2021/08/13 01:49:45;;;;;;;7.00;4.78;;;;;;;13.84;84.40;100613.16;1749469;80;21175;-79
2021/08/13 01:52:14;;;;;;;7.87;5.10;;;;;;;13.83;85.19;100612.77;1749641;81;21060;-79
2021/08/13 01:54:42;;;;;;;7.40;4.17;;;;;;;13.82;85.31;100611.89;1740659;81;21587;-78
2021/08/13 01:57:08;;;;;;;8.00;5.00;;;;;;;13.82;85.74;100625.59;1698254;83;21128;-79
2021/08/13 01:59:36;;;;;;;9.43;4.83;;;;;;;13.81;85.61;100627.86;1718337;83;21006;-78
2021/08/13 02:02:05;;;;;;;11.70;4.12;;;;;;;13.78;84.04;100629.28;1718114;83;21564;-78
2021/08/13 02:04:36;;;;;;;9.48;4.87;;;;;;;13.77;85.24;100636.84;1718464;83;21060;-79
2021/08/13 02:07:04;;;;;;;8.95;4.50;;;;;;;13.72;83.79;100636.19;1718170;83;21105;-78
2021/08/13 02:09:34;;;;;;;10.18;5.22;;;;;;;13.67;83.73;100636.84;1718407;83;21033;-79
2021/08/13 02:12:01;;;;;;;10.85;5.70;;;;;;;13.63;84.81;100636.95;1718085;83;21060;-79
2021/08/13 02:14:32;;;;;;;9.45;4.00;;;;;;;13.59;84.14;100640.64;1718568;83;21033;-79
2021/08/13 02:17:00;;;;;;;8.45;4.50;;;;;;;13.59;85.36;100644.61;1680607;84;21088;-81
2021/08/13 02:19:37;;;;;;;7.12;3.70;;;;;;;13.58;85.30;100653.96;1727511;82;21754;-81
2021/08/13 02:22:05;;;;;;;8.10;4.35;;;;;;;13.55;84.07;100656.27;1727086;83;21013;-77
2021/08/13 02:24:34;;;;;;;8.65;5.17;;;;;;;13.53;85.72;100658.13;1727264;83;21085;-78
2021/08/13 02:29:40;;;;;;;11.43;5.03;;;;;;;13.56;86.83;100663.28;1795271;79;22581;-81
2021/08/13 02:32:09;;;;;;;11.85;5.28;;;;;;;13.53;87.19;100667.37;1754715;81;21055;-79
2021/08/13 02:34:37;;;;;;;5.15;3.45;;;;;;;13.54;86.35;100670.87;1755241;81;21133;-80
2021/08/13 02:37:17;;;;;;;8.58;4.70;;;;;;;13.55;86.71;100668.62;1755280;81;21504;-79
2021/08/13 02:39:54;;;;;;;7.80;4.22;;;;;;;13.56;86.55;100673.00;1755953;81;20946;-77
2021/08/13 02:42:32;;;;;;;6.83;4.53;;;;;;;13.57;86.52;100679.57;1756286;81;21068;-78
2021/08/13 02:45:00;;;;;;;7.90;4.72;;;;;;;13.57;87.37;100678.25;1724348;83;21087;-78
2021/08/13 02:47:29;;;;;;;7.75;4.10;;;;;;;13.57;87.45;100681.33;1727686;83;21521;-79
2021/08/13 02:50:06;;;;;;;7.15;3.72;;;;;;;13.58;87.34;100675.98;1727817;82;21029;-77
2021/08/13 02:52:46;;;;;;;10.45;5.05;;;;;;;13.58;87.55;100678.63;1727629;82;21018;-81
2021/08/13 02:55:20;;;;;;;7.08;4.85;;;;;;;13.59;87.46;100690.92;1742773;81;21580;-79
2021/08/13 02:57:51;;;;;;;7.65;4.80;;;;;;;13.60;87.54;100684.73;1758151;81;21064;-79
2021/08/13 03:00:18;;;;;;;7.40;4.85;;;;;;;13.61;87.90;100678.50;1758208;81;21907;-80
2021/08/13 03:02:47;;;;;;;8.05;4.72;;;;;;;13.62;87.81;100685.53;1758315;81;21060;-79
2021/08/13 03:05:19;;;;;;;9.25;5.33;;;;;;;13.66;87.56;100686.72;1756583;81;21057;-80
2021/08/13 03:07:47;;;;;;;8.43;4.95;;;;;;;13.68;87.70;100683.08;1723909;83;21074;-81
2021/08/13 03:10:14;;;;;;;9.10;4.87;;;;;;;13.72;87.17;100682.51;1723422;83;21137;-79
2021/08/13 03:12:43;;;;;;;10.20;5.47;;;;;;;13.75;87.37;100677.08;1723359;83;21071;-80
2021/08/13 03:15:11;;;;;;;7.42;4.67;;;;;;;13.77;86.92;100673.91;1723493;83;21498;-80
2021/08/13 03:17:40;;;;;;;8.33;4.92;;;;;;;13.82;87.34;100679.86;1724102;83;21049;-80
2021/08/13 03:20:09;;;;;;;8.08;4.95;;;;;;;13.87;87.85;100677.87;1724977;83;21015;-81
2021/08/13 03:22:38;;;;;;;5.63;3.53;;;;;;;13.97;87.20;100680.55;1722955;83;21074;-81
2021/08/13 03:25:07;;;;;;;12.70;4.95;;;;;;;14.22;87.30;100678.19;1699351;83;21064;-79
2021/08/13 03:27:35;;;;;;;8.78;4.12;;;;;;;14.66;86.58;100684.19;1723411;83;21022;-80
2021/08/13 03:30:02;;;;;;;10.45;5.40;;;;;;;15.14;84.78;100686.42;1710746;83;21113;-80
2021/08/13 03:32:32;;;;;;;11.33;5.42;;;;;;;15.58;83.83;100690.09;1690164;83;21055;-77
2021/08/13 03:35:00;;;;;;;5.20;3.67;;;;;;;16.00;82.16;100692.91;1710934;83;21083;-78
2021/08/13 03:37:30;;;;;;;10.95;4.62;;;;;;;16.35;80.80;100691.08;1690405;83;21095;-77
2021/08/13 03:39:57;;;;;;;8.70;4.80;;;;;;;16.71;79.49;100684.30;1710332;83;21056;-78
2021/08/13 03:42:24;;;;;;;7.12;4.37;;;;;;;17.05;77.89;100683.83;1710001;82;21445;-75
2021/08/13 03:44:52;;;;;;;7.17;4.95;;;;;;;17.40;76.66;100691.16;1710429;83;21135;-76
2021/08/13 03:47:20;;;;;;;8.45;4.42;;;;;;;17.76;75.26;100681.14;1710276;83;21457;-75
2021/08/13 03:49:47;;;;;;;7.85;4.58;;;;;;;18.13;73.76;100689.66;1710129;83;21120;-77
2021/08/13 03:52:16;;;;;;;7.62;4.50;;;;;;;18.47;72.29;100685.81;1709427;83;21078;-77
2021/08/13 03:54:43;;;;;;;5.85;3.58;;;;;;;18.80;71.01;100690.08;1710098;83;21571;-75
2021/08/13 03:57:11;;;;;;;8.43;4.15;;;;;;;19.15;68.29;100697.66;1711184;83;21645;-79
2021/08/13 03:59:38;;;;;;;7.72;4.83;;;;;;;19.53;67.48;100699.66;1711650;83;21067;-82
2021/08/13 04:02:05;;;;;;;10.28;4.10;;;;;;;19.84;66.06;100703.39;1711832;83;21095;-81
2021/08/13 04:04:34;;;;;;;6.50;4.05;;;;;;;20.18;65.00;100699.80;1701651;83;21563;-82
2021/08/13 04:07:03;;;;;;;6.33;3.92;;;;;;;20.53;63.02;100707.20;1711406;82;21130;-80
2021/08/13 04:09:31;;;;;;;6.62;4.00;;;;;;;20.77;60.94;100699.78;1711906;82;21613;-80
2021/08/13 04:12:00;;;;;;;6.80;4.08;;;;;;;21.01;61.03;100699.38;1711487;82;21246;-79
2021/08/13 04:14:30;;;;;;;6.60;3.90;;;;;;;21.21;59.84;100702.43;1677030;85;21486;-79
2021/08/13 04:16:59;;;;;;;7.87;4.42;;;;;;;21.36;58.61;100708.02;1677123;85;21041;-77
2021/08/13 04:19:28;;;;;;;6.50;3.35;;;;;;;21.65;58.66;100701.89;1677132;84;21077;-76
2021/08/13 04:21:56;;;;;;;7.47;4.05;;;;;;;21.95;56.61;100699.23;1676979;84;21077;-77
2021/08/13 04:24:24;;;;;;;8.68;4.10;;;;;;;22.15;56.34;100701.71;1707965;83;21246;-76
2021/08/13 04:26:52;;;;;;;5.12;3.75;;;;;;;22.31;55.66;100706.30;1711739;82;21681;-76
2021/08/13 04:29:19;;;;;;;8.53;4.17;;;;;;;22.46;55.17;100710.13;1715947;83;21085;-77
2021/08/13 04:31:46;;;;;;;8.50;4.47;;;;;;;22.62;54.76;100709.30;1719512;83;21611;-76
2021/08/13 04:34:15;;;;;;;5.30;3.60;;;;;;;22.85;53.55;100714.69;1719113;83;21065;-76
2021/08/13 04:36:42;;;;;;;6.85;3.98;;;;;;;23.01;52.21;100708.00;1718825;83;21619;-77
2021/08/13 04:39:12;;;;;;;8.83;3.55;;;;;;;23.21;52.54;100708.20;1681965;85;21143;-79
2021/08/13 04:41:40;;;;;;;9.13;3.55;;;;;;;23.38;50.20;100713.58;1680382;85;21399;-76
2021/08/13 04:44:09;;;;;;;5.47;3.47;;;;;;;23.63;50.42;100717.30;1682070;85;21123;-76
2021/08/13 04:46:38;;;;;;;4.83;3.08;;;;;;;23.82;49.99;100727.90;1672501;85;21137;-76
2021/08/13 04:49:05;;;;;;;6.85;4.05;;;;;;;24.01;49.51;100722.67;1672917;85;21549;-77
2021/08/13 04:51:32;;;;;;;5.75;3.58;;;;;;;24.27;49.08;100726.33;1681107;84;21555;-76
2021/08/13 04:54:00;;;;;;;5.20;3.58;;;;;;;24.41;48.32;100721.98;1684642;85;21072;-77
2021/08/13 04:56:27;;;;;;;9.18;3.65;;;;;;;24.60;48.10;100721.28;1671591;85;21057;-75
2021/08/13 04:58:55;;;;;;;7.20;3.50;;;;;;;24.88;47.70;100717.52;1642100;84;21127;-76
2021/08/13 05:01:30;;;;;;;7.40;4.08;;;;;;;25.08;46.24;100722.50;1680516;84;21108;-77
2021/08/13 05:03:57;;;;;;;7.67;3.90;;;;;;;25.23;46.34;100718.45;1720239;83;21530;-77
2021/08/13 05:06:25;;;;;;;5.97;3.70;;;;;;;25.35;45.83;100724.58;1717416;83;21159;-75
2021/08/13 05:08:53;;;;;;;4.60;3.65;;;;;;;25.42;45.28;100730.27;1719350;83;21116;-77
2021/08/13 05:11:20;;;;;;;5.00;3.27;;;;;;;25.62;45.14;100730.67;1713227;83;22003;-77
2021/08/13 05:13:47;;;;;;;6.25;3.72;;;;;;;25.92;43.42;100730.23;1719490;83;21534;-77
2021/08/13 05:16:14;;;;;;;8.20;3.60;;;;;;;25.97;44.07;100732.01;1738645;82;21129;-76
2021/08/13 05:18:42;;;;;;;6.92;3.52;;;;;;;26.21;43.77;100726.69;1746701;82;21524;-76
2021/08/13 05:21:11;;;;;;;9.90;4.33;;;;;;;26.37;42.71;100726.45;1723305;82;21540;-76
2021/08/13 05:23:40;;;;;;;7.05;4.05;;;;;;;26.53;42.49;100724.50;1719539;83;21031;-77
2021/08/13 05:26:08;;;;;;;6.62;3.55;;;;;;;26.75;41.98;100738.68;1719318;82;21088;-76
2021/08/13 05:28:36;;;;;;;7.40;3.50;;;;;;;26.96;41.34;100733.93;1656767;85;21163;-77
2021/08/13 05:31:04;;;;;;;4.92;3.50;;;;;;;27.15;41.02;100737.55;1684126;85;21056;-74
2021/08/13 05:33:31;;;;;;;36.42;13.83;;;;;;;27.28;40.40;100745.33;1684571;84;21100;-76
2021/08/13 05:35:58;;;;;;;9.55;4.22;;;;;;;27.29;39.96;100739.78;1719137;83;21137;-75
2021/08/13 05:38:26;;;;;;;10.50;3.95;;;;;;;27.33;39.88;100742.53;1719480;83;21085;-76
2021/08/13 05:40:53;;;;;;;9.08;3.72;;;;;;;27.48;39.68;100737.97;1719360;83;21056;-75
2021/08/13 05:43:19;;;;;;;6.05;3.25;;;;;;;27.61;39.48;100735.75;1719532;83;21073;-76
2021/08/13 05:45:47;;;;;;;5.33;3.50;;;;;;;27.83;39.44;100731.25;1684484;85;21140;-75
2021/08/13 05:48:14;;;;;;;7.12;3.33;;;;;;;27.97;38.71;100738.48;1719264;83;21202;-76
2021/08/13 05:50:41;;;;;;;6.55;3.62;;;;;;;28.19;39.19;100740.72;1700914;81;21070;-77
2021/08/13 05:53:10;;;;;;;7.12;3.20;;;;;;;28.19;39.19;100740.72;1684361;84;22423;-77
2021/08/13 05:55:39;;;;;;;7.97;3.05;;;;;;;28.47;38.26;100744.69;1719404;83;21568;-76
2021/08/13 05:58:06;;;;;;;8.18;3.50;;;;;;;28.71;37.70;100744.50;1717096;81;21095;-75
2021/08/13 06:00:34;;;;;;;6.10;3.62;;;;;;;28.96;37.74;100745.50;1713831;81;21576;-77
2021/08/13 06:03:05;;;;;;;8.25;3.35;;;;;;;29.14;37.33;100743.58;1714811;83;21080;-77
2021/08/13 06:05:33;;;;;;;5.65;3.00;;;;;;;29.31;36.33;100741.81;1714578;83;21543;-76
2021/08/13 06:08:04;;;;;;;7.72;3.02;;;;;;;29.41;36.15;100743.86;1716671;81;21542;-77
2021/08/13 06:10:31;;;;;;;9.30;3.85;;;;;;;29.49;35.99;100742.55;1707597;82;21105;-76
2021/08/13 06:12:59;;;;;;;6.15;3.45;;;;;;;29.68;35.49;100741.95;1710594;83;21085;-75
2021/08/13 06:15:28;;;;;;;4.90;3.25;;;;;;;29.78;35.39;100741.27;1687021;83;21423;-76
2021/08/13 06:17:55;;;;;;;5.30;2.95;;;;;;;29.97;34.84;100741.97;1670414;84;21566;-75
2021/08/13 06:20:25;;;;;;;6.67;3.37;;;;;;;30.26;34.00;100746.42;1714065;83;21105;-75
2021/08/13 06:23:00;;;;;;;4.58;2.85;;;;;;;30.48;34.27;100749.45;1706974;83;21045;-78
2021/08/13 06:25:27;;;;;;;4.67;3.27;;;;;;;30.60;33.52;100751.30;1709250;83;21074;-77
2021/08/13 06:27:56;;;;;;;9.55;3.20;;;;;;;30.60;33.77;100741.31;1707680;81;21685;-79
2021/08/13 06:30:24;;;;;;;6.20;3.37;;;;;;;30.63;33.80;100746.39;1714943;81;21111;-77
2021/08/13 06:32:52;;;;;;;4.95;3.15;;;;;;;30.67;33.07;100747.75;1724103;81;21040;-76
2021/08/13 06:35:20;;;;;;;4.20;2.80;;;;;;;30.83;33.25;100745.98;1721039;83;21869;-76
2021/08/13 06:37:50;;;;;;;4.90;2.80;;;;;;;30.94;32.91;100740.21;1722381;83;21055;-76
2021/08/13 06:40:17;;;;;;;3.77;2.90;;;;;;;31.00;33.02;100735.44;1722442;81;21028;-77
2021/08/13 06:42:45;;;;;;;3.83;2.60;;;;;;;31.05;32.67;100734.40;1720151;83;21144;-76
2021/08/13 06:45:15;;;;;;;6.28;2.90;;;;;;;30.97;31.92;100739.88;1723921;83;21104;-77
2021/08/13 06:47:43;;;;;;;7.17;3.13;;;;;;;30.78;32.74;100730.72;1720610;83;21076;-78
2021/08/13 06:50:11;;;;;;;6.90;2.90;;;;;;;30.56;32.78;100735.03;1722314;82;21424;-77
2021/08/13 06:52:40;;;;;;;5.22;3.10;;;;;;;30.18;33.28;100742.31;1724627;81;21582;-76
2021/08/13 06:55:09;;;;;;;4.80;3.17;;;;;;;30.08;34.13;100741.64;1719848;83;21143;-79
2021/08/13 06:57:36;;;;;;;6.20;2.80;;;;;;;30.33;33.65;100754.75;1715237;83;21076;-75
2021/08/13 07:00:11;;;;;;;9.08;3.08;;;;;;;30.57;33.54;100738.91;1721065;83;21109;-77
2021/08/13 07:02:39;;;;;;;4.28;2.77;;;;;;;30.64;33.02;100742.63;1715820;83;21116;-78
2021/08/13 07:05:07;;;;;;;4.62;2.67;;;;;;;30.63;32.85;100743.67;1721506;83;21084;-76
2021/08/13 07:07:35;;;;;;;6.15;3.58;;;;;;;30.77;32.84;100738.55;1715544;81;21594;-78
2021/08/13 07:10:07;;;;;;;7.55;3.00;;;;;;;30.86;32.50;100741.61;1721371;83;22321;-76
2021/08/13 07:12:34;;;;;;;5.58;2.98;;;;;;;30.95;32.41;100740.56;1719437;83;22076;-77
2021/08/13 07:15:04;;;;;;;14.03;3.80;;;;;;;30.99;31.96;100739.69;1710367;83;21057;-77
2021/08/13 07:17:31;;;;;;;4.45;2.20;;;;;;;31.05;31.37;100739.84;1713559;83;22248;-79
2021/08/13 07:19:59;;;;;;;6.40;2.30;;;;;;;31.24;31.94;100747.24;1718681;81;21157;-79
2021/08/13 07:22:26;;;;;;;2.58;2.00;;;;;;;31.51;30.22;100751.40;1715877;83;21023;-80
2021/08/13 07:24:53;;;;;;;6.47;2.42;;;;;;;31.43;30.21;100749.58;1712889;83;21087;-79
2021/08/13 07:27:20;;;;;;;5.67;2.35;;;;;;;31.42;30.58;100750.59;1715149;83;22105;-79
2021/08/13 07:29:47;;;;;;;3.90;2.33;;;;;;;31.40;30.46;100745.80;1717867;83;21092;-80
2021/08/13 07:32:16;;;;;;;20.62;3.45;;;;;;;31.49;30.90;100750.20;1678491;84;21611;-78
2021/08/13 07:34:43;;;;;;;7.25;2.42;;;;;;;31.64;30.36;100754.91;1722979;82;21018;-78
2021/08/13 07:37:10;;;;;;;4.42;2.00;;;;;;;31.61;29.87;100750.67;1710086;82;21576;-78
2021/08/13 07:39:39;;;;;;;4.47;2.15;;;;;;;31.65;29.69;100754.71;1721877;82;21078;-78
2021/08/13 07:42:07;;;;;;;2.42;1.80;;;;;;;31.55;29.49;100753.58;1716538;82;21147;-79
2021/08/13 07:44:35;;;;;;;6.47;2.05;;;;;;;31.48;29.15;100748.52;1714076;82;21475;-78
2021/08/13 07:47:02;;;;;;;3.27;1.92;;;;;;;31.40;30.17;100744.96;1719279;82;21080;-79
2021/08/13 07:49:30;;;;;;;8.05;2.45;;;;;;;31.58;29.64;100751.53;1704810;83;21092;-79
2021/08/13 07:51:58;;;;;;;5.28;1.87;;;;;;;31.54;29.71;100750.55;1706137;83;21062;-79
2021/08/13 07:54:25;;;;;;;2.62;1.75;;;;;;;31.34;28.86;100749.25;1719667;83;21122;-78
2021/08/13 07:56:52;;;;;;;4.10;1.82;;;;;;;31.32;29.17;100743.98;1721295;83;21633;-79
2021/08/13 07:59:20;;;;;;;2.77;1.90;;;;;;;31.32;29.17;100743.98;1712862;81;21091;-76
2021/08/13 08:01:49;;;;;;;3.40;2.22;;;;;;;31.19;29.36;100742.33;1715567;83;21131;-77
2021/08/13 08:04:16;;;;;;;4.60;2.40;;;;;;;31.22;29.85;100741.13;1716307;83;21115;-77
2021/08/13 08:06:42;;;;;;;3.90;2.00;;;;;;;31.42;30.35;100741.06;1712613;83;21028;-78
2021/08/13 08:09:09;;;;;;;7.15;2.20;;;;;;;31.89;29.00;100736.54;1712537;83;21959;-78
2021/08/13 08:11:36;;;;;;;4.05;2.30;;;;;;;32.14;29.20;100733.11;1719804;83;21564;-78
2021/08/13 08:14:03;;;;;;;10.23;2.60;;;;;;;31.96;28.87;100734.29;1712124;83;21033;-75
2021/08/13 08:16:30;;;;;;;7.08;2.33;;;;;;;31.76;28.97;100737.12;1720168;81;21041;-78
2021/08/13 08:18:56;;;;;;;9.18;2.30;;;;;;;31.64;29.19;100739.94;1713785;81;21107;-76
2021/08/13 08:21:24;;;;;;;12.93;2.98;;;;;;;31.78;28.85;100737.80;1714739;81;21212;-76
2021/08/13 08:23:50;;;;;;;11.20;2.75;;;;;;;31.85;28.66;100742.01;1718222;83;21019;-76
2021/08/13 08:26:17;;;;;;;3.67;2.08;;;;;;;31.85;28.71;100743.38;1721148;81;21040;-75
2021/08/13 08:28:45;;;;;;;4.50;2.15;;;;;;;31.93;28.14;100752.34;1724784;82;21585;-75
2021/08/13 08:31:13;;;;;;;3.33;2.20;;;;;;;31.90;28.73;100741.78;1696710;83;21087;-75
2021/08/13 08:33:40;;;;;;;7.22;2.42;;;;;;;31.92;28.42;100746.53;1709171;83;21151;-76
2021/08/13 08:36:07;;;;;;;3.55;2.00;;;;;;;31.97;28.60;100746.87;1701734;83;21517;-76
2021/08/13 08:38:34;;;;;;;6.80;2.37;;;;;;;32.01;28.25;100742.44;1712377;82;21089;-76
2021/08/13 08:41:05;;;;;;;3.22;2.10;;;;;;;32.05;28.05;100749.19;1717059;83;21084;-76
2021/08/13 08:43:32;;;;;;;5.60;2.10;;;;;;;31.91;27.47;100743.50;1709805;82;21104;-75
2021/08/13 08:46:00;;;;;;;2.92;2.17;;;;;;;31.83;28.01;100742.70;1713285;82;21634;-77
2021/08/13 08:48:34;;;;;;;6.37;2.22;;;;;;;31.93;28.23;100750.10;1712618;82;21545;-75
2021/08/13 08:51:06;;;;;;;2.75;2.05;;;;;;;32.03;28.25;100746.67;1709661;83;21279;-77
2021/08/13 08:53:33;;;;;;;2.85;2.02;;;;;;;31.91;27.34;100744.86;1715573;82;21140;-75
2021/08/13 08:56:01;;;;;;;3.60;2.00;;;;;;;31.86;27.60;100748.61;1717459;82;21111;-77
2021/08/13 08:58:32;;;;;;;5.00;1.57;;;;;;;31.77;28.08;100741.53;1709194;82;21170;-74
2021/08/13 09:01:00;;;;;;;3.27;2.17;;;;;;;31.78;28.43;100748.69;1712405;82;21537;-76
2021/08/13 09:03:27;;;;;;;4.00;2.08;;;;;;;31.97;27.68;100750.11;1706484;83;21131;-75
2021/08/13 09:05:53;;;;;;;3.83;1.90;;;;;;;32.06;27.33;100749.54;1717774;83;21069;-75
2021/08/13 09:08:20;;;;;;;6.92;2.70;;;;;;;32.10;27.44;100742.70;1709195;83;21855;-76
2021/08/13 09:10:47;;;;;;;5.47;2.17;;;;;;;32.19;27.55;100744.33;1682832;84;21194;-76
2021/08/13 09:13:14;;;;;;;4.35;2.50;;;;;;;32.42;27.60;100743.42;1712256;82;21156;-75
2021/08/13 09:15:42;;;;;;;2.85;2.17;;;;;;;32.45;27.02;100753.98;1711445;83;21064;-75
2021/08/13 09:18:21;;;;;;;3.90;2.05;;;;;;;32.45;27.02;100753.98;1710810;83;21045;-75
2021/08/13 09:21:01;;;;;;;3.50;2.10;;;;;;;32.55;26.58;100743.67;1712133;83;21072;-76
2021/08/13 09:23:37;;;;;;;4.72;2.15;;;;;;;32.59;25.88;100743.64;1717740;83;22114;-77
2021/08/13 09:26:12;;;;;;;4.25;2.00;;;;;;;32.51;26.76;100742.34;1716847;83;21119;-75
2021/08/13 09:29:01;;;;;;;6.35;2.52;;;;;;;32.59;26.26;100749.93;1712363;82;21529;-75
2021/08/13 09:31:32;;;;;;;;;;;;;;;32.62;25.85;100748.70;1698717;83;21100;-76
2021/08/13 09:34:12;;;;;;;4.40;2.10;;;;;;;32.57;26.04;100749.27;1708008;83;20154;-76
2021/08/13 09:36:53;;;;;;;6.35;2.58;;;;;;;32.36;26.15;100739.57;1708083;82;21247;-78
2021/08/13 09:39:30;;;;;;;4.80;2.05;;;;;;;32.39;26.32;100746.88;1712318;81;21136;-75
2021/08/13 09:41:59;;;;;;;3.33;1.90;;;;;;;32.51;26.00;100739.62;1715205;83;21077;-76
2021/08/13 09:44:31;;;;;;;5.17;2.25;;;;;;;32.34;26.30;100745.20;1720515;83;21540;-75
2021/08/13 09:47:05;;;;;;;5.72;2.30;;;;;;;32.20;26.38;100743.28;1727070;82;21101;-76
2021/08/13 09:49:35;;;;;;;5.37;2.45;;;;;;;32.26;26.95;100753.46;1719816;81;21162;-77
2021/08/13 09:52:13;;;;;;;5.70;2.08;;;;;;;32.24;26.56;100748.70;1726919;80;21085;-79
2021/08/13 09:54:40;;;;;;;4.65;2.27;;;;;;;32.27;26.14;100749.69;1717530;81;21073;-76
2021/08/13 09:57:12;;;;;;;4.62;2.80;;;;;;;31.83;26.51;100748.98;1726567;81;21114;-76
2021/08/13 09:59:49;;;;;;;3.55;2.00;;;;;;;31.73;26.90;100746.51;1704575;83;21100;-75
2021/08/13 10:02:17;;;;;;;4.60;2.98;;;;;;;31.58;27.09;100748.30;1687420;83;21119;-75
2021/08/13 10:04:44;;;;;;;9.50;3.10;;;;;;;31.61;27.00;100748.44;1686382;83;21061;-76
2021/08/13 10:07:19;;;;;;;3.27;2.22;;;;;;;31.65;26.67;100745.70;1689592;84;21654;-76
2021/08/13 10:09:44;;;;;;;3.10;2.10;;;;;;;31.70;26.59;100747.37;1689043;84;21036;-76
2021/08/13 10:12:11;;;;;;;7.00;2.50;;;;;;;31.90;26.58;100759.48;1690231;84;21139;-77
2021/08/13 10:14:42;;;;;;;3.60;2.35;;;;;;;32.04;26.32;100754.32;1623380;84;30541;-77
2021/08/13 10:17:17;;;;;;;3.67;2.25;;;;;;;32.05;26.29;100749.19;1642611;86;21100;-76
2021/08/13 10:19:49;;;;;;;3.83;2.42;;;;;;;32.14;26.24;100753.55;1616142;87;21121;-76
2021/08/13 10:22:21;;;;;;;4.75;2.27;;;;;;;32.30;25.71;100754.80;1613195;88;21142;-77
2021/08/13 10:24:50;;;;;;;5.37;2.50;;;;;;;32.25;25.54;100739.48;1622670;87;21518;-77
2021/08/13 10:27:18;;;;;;;3.65;2.12;;;;;;;32.17;25.70;100750.47;1643348;86;21109;-77
2021/08/13 10:29:47;;;;;;;3.65;2.37;;;;;;;31.77;25.83;100742.89;1617459;87;21689;-78
2021/08/13 10:32:19;;;;;;;5.37;2.35;;;;;;;31.60;26.86;100733.16;1605141;88;21114;-77
2021/08/13 10:34:47;;;;;;;7.15;2.20;;;;;;;31.65;26.83;100737.53;1642170;85;21084;-75
2021/08/13 10:37:15;;;;;;;4.92;2.45;;;;;;;31.93;26.25;100744.16;1648338;87;21541;-76
2021/08/13 10:39:45;;;;;;;6.28;2.83;;;;;;;32.10;25.70;100742.19;1648952;86;21518;-75
2021/08/13 10:42:18;;;;;;;3.87;2.40;;;;;;;32.37;25.57;100742.61;1647419;87;21078;-75
2021/08/13 10:44:55;;;;;;;4.33;2.70;;;;;;;32.50;25.17;100736.55;1630677;87;21711;-75
2021/08/13 10:47:29;;;;;;;4.03;2.37;;;;;;;32.51;25.55;100729.58;1612153;88;21095;-77
2021/08/13 10:49:57;;;;;;;3.02;2.10;;;;;;;32.50;25.10;100748.28;1619563;87;21652;-76
2021/08/13 10:52:37;;;;;;;3.08;2.20;;;;;;;32.36;25.25;100741.77;1603282;87;21107;-76
2021/08/13 10:55:07;;;;;;;4.67;2.08;;;;;;;32.35;25.48;100733.28;1630581;85;21092;-78
2021/08/13 10:57:55;;;;;;;6.75;2.47;;;;;;;32.49;25.26;100734.86;1614588;86;21089;-77
2021/08/13 11:00:23;;;;;;;7.17;2.30;;;;;;;32.67;25.08;100740.84;1610369;87;21090;-78
2021/08/13 11:03:20;;;;;;;3.02;2.20;;;;;;;32.78;25.14;100733.56;1631861;86;21070;-76
2021/08/13 11:05:59;;;;;;;3.37;2.05;;;;;;;32.78;24.77;100735.42;1607436;87;21179;-77
2021/08/13 11:08:46;;;;;;;5.28;2.60;;;;;;;32.72;24.81;100728.84;1611951;87;21051;-77
2021/08/13 11:11:14;;;;;;;6.75;2.72;;;;;;;32.81;25.51;100730.97;1625345;87;21633;-77
2021/08/13 11:13:44;;;;;;;10.60;2.75;;;;;;;32.98;24.79;100734.34;1616970;88;21099;-77
2021/08/13 11:16:31;;;;;;;7.75;2.37;;;;;;;33.13;25.46;100735.22;1634386;87;21131;-78
2021/08/13 11:19:10;;;;;;;5.90;2.62;;;;;;;33.41;24.65;100731.78;1631275;87;21062;-77
2021/08/13 11:21:46;;;;;;;3.60;2.47;;;;;;;33.48;24.10;100724.52;1635680;86;21576;-76
2021/08/13 11:24:12;;;;;;;11.22;2.65;;;;;;;33.38;24.64;100722.59;1630976;87;21121;-77
2021/08/13 11:27:02;;;;;;;4.30;2.05;;;;;;;33.46;24.40;100726.59;1616783;87;21091;-76
2021/08/13 11:29:34;;;;;;;3.72;2.40;;;;;;;33.27;23.97;100727.18;1622456;87;21670;-77
2021/08/13 11:32:10;;;;;;;4.22;2.60;;;;;;;33.16;24.75;100733.47;1620927;87;21170;-77
2021/08/13 11:34:55;;;;;;;3.80;2.22;;;;;;;33.30;24.53;100729.55;1617245;87;21144;-77
2021/08/13 11:37:45;;;;;;;9.80;3.45;;;;;;;33.32;24.05;100724.75;1644841;86;21064;-78
2021/08/13 11:40:19;;;;;;;5.17;2.45;;;;;;;33.13;24.41;100729.77;1650746;86;21618;-77